createdAt,value
2018-12-14T00:01:13.794Z,18.62
2018-12-14T00:03:41.225Z,17.85
2018-12-14T00:06:08.673Z,19.48
2018-12-14T00:08:36.106Z,16.87
2018-12-14T00:11:03.678Z,17.45
2018-12-14T00:13:31.106Z,25.75
2018-12-14T00:15:58.551Z,15.63
2018-12-14T00:18:25.982Z,16.75
2018-12-14T00:20:53.853Z,18.60
2018-12-14T00:23:21.326Z,13.98
2018-12-14T00:25:48.782Z,19.48
2018-12-14T00:28:16.329Z,19.02
2018-12-14T00:30:43.791Z,17.57
2018-12-14T00:33:11.226Z,17.65
2018-12-14T00:35:38.718Z,19.55
2018-12-14T00:38:06.161Z,20.57
2018-12-14T00:40:33.626Z,17.73
2018-12-14T00:43:01.063Z,16.12
2018-12-14T00:45:28.489Z,15.98
2018-12-14T00:47:55.934Z,19.30
2018-12-14T00:50:23.413Z,20.68
2018-12-14T00:52:50.971Z,13.78
2018-12-14T00:55:18.413Z,21.27
2018-12-14T00:57:45.974Z,15.78
2018-12-14T01:00:13.562Z,17.57
2018-12-14T01:02:41.006Z,19.35
2018-12-14T01:05:08.466Z,20.12
2018-12-14T01:07:35.930Z,17.82
2018-12-14T01:10:04.106Z,18.35
2018-12-14T01:12:31.590Z,19.60
2018-12-14T01:14:59.462Z,22.80
2018-12-14T01:17:26.904Z,20.77
2018-12-14T01:19:54.347Z,17.17
2018-12-14T01:22:21.806Z,20.37
2018-12-14T01:24:49.336Z,17.98
2018-12-14T01:27:16.842Z,20.65
2018-12-14T01:29:44.324Z,20.02
2018-12-14T01:32:11.754Z,18.48
2018-12-14T01:34:39.239Z,18.23
2018-12-14T01:37:07.298Z,20.62
2018-12-14T01:39:34.771Z,17.48
2018-12-14T01:42:05.030Z,18.02
2018-12-14T01:44:31.678Z,18.70
2018-12-14T01:46:59.130Z,20.20
2018-12-14T01:49:26.586Z,20.02
2018-12-14T01:51:54.042Z,20.50
2018-12-14T01:54:21.486Z,19.52
2018-12-14T01:56:49.062Z,21.68
2018-12-14T01:59:16.541Z,20.32
2018-12-14T02:01:44.725Z,22.27
2018-12-14T02:04:12.181Z,20.20
2018-12-14T02:06:39.638Z,19.20
2018-12-14T02:09:07.366Z,20.45
2018-12-14T02:11:34.847Z,21.90
2018-12-14T02:14:02.322Z,20.43
2018-12-14T02:16:29.761Z,19.65
2018-12-14T02:18:57.214Z,20.70
2018-12-14T02:21:24.648Z,18.32
2018-12-14T02:23:52.194Z,18.75
2018-12-14T02:26:19.639Z,21.10
2018-12-14T02:28:47.071Z,21.17
2018-12-14T02:31:14.530Z,24.92
2018-12-14T02:33:41.987Z,18.77
2018-12-14T02:36:09.438Z,17.52
2018-12-14T02:38:36.958Z,10.45
2018-12-14T02:41:04.414Z,12.50
2018-12-14T02:43:31.990Z,11.45
2018-12-14T02:45:59.446Z,10.25
2018-12-14T02:48:26.889Z,8.40
2018-12-14T02:50:54.366Z,12.20
2018-12-14T02:53:21.813Z,9.28
2018-12-14T02:55:49.241Z,9.85
2018-12-14T02:58:16.882Z,11.15
2018-12-14T03:00:44.333Z,9.03
2018-12-14T03:03:11.782Z,10.13
2018-12-14T03:05:39.210Z,9.15
2018-12-14T03:08:06.666Z,11.22
2018-12-14T03:10:34.214Z,13.85
2018-12-14T03:13:01.765Z,9.93
2018-12-14T03:15:29.341Z,8.75
2018-12-14T03:17:56.890Z,10.68
2018-12-14T03:20:24.345Z,10.43
2018-12-14T03:22:51.891Z,11.50
2018-12-14T03:25:19.340Z,9.10
2018-12-14T03:27:46.830Z,10.80
2018-12-14T03:30:14.356Z,12.10
2018-12-14T03:32:41.872Z,8.00
2018-12-14T03:35:09.343Z,10.78
2018-12-14T03:37:36.814Z,10.80
2018-12-14T03:40:04.987Z,10.50
2018-12-14T03:42:34.648Z,9.78
2018-12-14T03:45:02.650Z,10.68
2018-12-14T03:47:30.082Z,11.83
2018-12-14T03:49:57.518Z,8.58
2018-12-14T03:52:25.007Z,12.18
2018-12-14T03:54:52.466Z,12.93
2018-12-14T03:57:19.929Z,11.18
2018-12-14T03:59:47.366Z,9.13
2018-12-14T04:02:14.913Z,12.30
2018-12-14T04:04:42.366Z,9.43
2018-12-14T04:07:09.814Z,10.23
2018-12-14T04:09:37.254Z,12.20
2018-12-14T04:12:05.473Z,8.05
2018-12-14T04:14:33.529Z,9.33
2018-12-14T04:17:00.992Z,12.05
2018-12-14T04:19:28.431Z,10.20
2018-12-14T04:21:55.862Z,11.85
2018-12-14T04:24:23.326Z,11.10
2018-12-14T04:26:50.750Z,10.53
2018-12-14T04:29:18.261Z,9.15
2018-12-14T04:31:45.716Z,9.78
2018-12-14T04:34:13.141Z,12.73
2018-12-14T04:36:40.599Z,10.80
2018-12-14T04:39:08.114Z,13.25
2018-12-14T04:41:35.578Z,12.40
2018-12-14T04:44:03.042Z,10.32
2018-12-14T04:46:30.579Z,11.45
2018-12-14T04:48:58.026Z,8.95
2018-12-14T04:51:25.486Z,12.40
2018-12-14T04:53:52.924Z,10.68
2018-12-14T04:56:20.444Z,12.95
2018-12-14T04:58:47.871Z,10.55
2018-12-14T05:01:15.301Z,13.68
2018-12-14T05:03:42.755Z,12.23
2018-12-14T05:06:10.214Z,12.13
2018-12-14T05:08:37.641Z,11.10
2018-12-14T05:11:05.099Z,12.35
2018-12-14T05:13:32.522Z,10.08
2018-12-14T05:15:59.960Z,13.32
2018-12-14T05:18:27.386Z,9.38
2018-12-14T05:20:54.846Z,10.93
2018-12-14T05:23:22.273Z,11.65
2018-12-14T05:25:49.810Z,11.57
2018-12-14T05:28:17.269Z,10.88
2018-12-14T05:30:44.695Z,11.20
2018-12-14T05:33:12.130Z,11.08
2018-12-14T05:35:39.578Z,12.00
2018-12-14T05:38:07.010Z,10.95
2018-12-14T05:40:34.429Z,9.95
2018-12-14T05:43:02.686Z,10.93
2018-12-14T05:45:30.391Z,12.70
2018-12-14T05:47:57.830Z,11.85
2018-12-14T05:50:25.386Z,13.13
2018-12-14T05:52:52.862Z,12.07
2018-12-14T05:55:20.314Z,11.40
2018-12-14T05:57:47.746Z,12.75
2018-12-14T06:00:15.446Z,11.12
2018-12-14T06:02:42.894Z,13.20
2018-12-14T06:05:10.368Z,12.93
2018-12-14T06:07:37.957Z,15.50
2018-12-14T06:10:05.454Z,13.58
2018-12-14T06:12:32.934Z,15.93
2018-12-14T06:15:00.362Z,15.03
2018-12-14T06:17:27.797Z,12.78
2018-12-14T06:19:55.307Z,15.70
2018-12-14T06:22:22.741Z,14.23
2018-12-14T06:24:50.174Z,14.35
2018-12-14T06:27:17.738Z,14.18
2018-12-14T06:29:45.190Z,12.82
2018-12-14T06:32:12.645Z,16.87
2018-12-14T06:34:40.099Z,19.62
2018-12-14T06:37:07.821Z,13.80
2018-12-14T06:39:35.246Z,21.62
2018-12-14T06:42:03.397Z,18.67
2018-12-14T06:44:30.856Z,14.53
2018-12-14T06:46:58.410Z,14.85
2018-12-14T06:49:25.871Z,16.12
2018-12-14T06:51:53.299Z,16.73
2018-12-14T06:54:20.911Z,15.35
2018-12-14T06:56:48.341Z,16.70
2018-12-14T06:59:15.798Z,11.50
2018-12-14T07:01:43.252Z,14.80
2018-12-14T07:04:10.690Z,14.93
2018-12-14T07:06:38.114Z,13.55
2018-12-14T07:09:05.996Z,15.40
2018-12-14T07:11:33.462Z,14.23
2018-12-14T07:14:00.902Z,13.72
2018-12-14T07:16:28.350Z,15.75
2018-12-14T07:18:55.791Z,14.13
2018-12-14T07:21:23.222Z,17.32
2018-12-14T07:23:50.661Z,18.20
2018-12-14T07:26:18.126Z,16.70
2018-12-14T07:28:45.587Z,16.60
2018-12-14T07:31:13.018Z,20.32
2018-12-14T07:33:40.481Z,18.75
2018-12-14T07:36:07.906Z,20.82
2018-12-14T07:38:35.346Z,18.17
2018-12-14T07:41:02.794Z,17.17
2018-12-14T07:43:30.230Z,19.70
2018-12-14T07:45:57.678Z,14.90
2018-12-14T07:48:25.153Z,15.18
2018-12-14T07:50:53.521Z,16.55
2018-12-14T07:53:20.974Z,18.40
2018-12-14T07:55:48.443Z,15.03
2018-12-14T07:58:15.882Z,14.80
2018-12-14T08:00:43.338Z,16.65
2018-12-14T08:03:10.789Z,16.97
2018-12-14T08:05:41.353Z,16.15
2018-12-14T08:08:08.797Z,14.87
2018-12-14T08:10:36.234Z,14.73
2018-12-14T08:13:03.927Z,16.30
2018-12-14T08:15:31.434Z,19.70
2018-12-14T08:17:58.881Z,14.73
2018-12-14T08:20:26.359Z,16.97
2018-12-14T08:22:53.838Z,15.65
2018-12-14T08:25:21.293Z,16.00
2018-12-14T08:27:48.726Z,15.70
2018-12-14T08:30:16.190Z,13.20
2018-12-14T08:32:43.641Z,15.30
2018-12-14T08:35:15.249Z,15.28
2018-12-14T08:37:42.722Z,15.32
2018-12-14T08:40:10.198Z,16.87
2018-12-14T08:42:37.653Z,15.50
2018-12-14T08:45:06.142Z,22.35
2018-12-14T08:47:34.244Z,14.78
2018-12-14T08:50:01.704Z,17.23
2018-12-14T08:52:29.219Z,20.30
2018-12-14T08:54:56.653Z,17.80
2018-12-14T08:57:24.082Z,16.27
2018-12-14T08:59:51.517Z,12.78
2018-12-14T09:02:18.977Z,13.80
2018-12-14T09:04:46.416Z,17.52
2018-12-14T09:07:13.922Z,16.52
2018-12-14T09:09:41.382Z,18.12
2018-12-14T09:12:08.814Z,16.93
2018-12-14T09:14:36.262Z,17.07
2018-12-14T09:17:03.742Z,23.07
2018-12-14T09:19:31.254Z,16.05
2018-12-14T09:21:58.693Z,16.85
2018-12-14T09:24:26.127Z,17.30
2018-12-14T09:26:53.558Z,18.85
2018-12-14T09:29:21.015Z,12.47
2018-12-14T09:31:48.710Z,18.20
2018-12-14T09:34:16.147Z,17.52
2018-12-14T09:36:43.694Z,17.77
2018-12-14T09:39:11.205Z,18.25
2018-12-14T09:41:38.662Z,19.15
2018-12-14T09:44:06.107Z,18.10
2018-12-14T09:46:37.007Z,17.57
2018-12-14T09:49:03.130Z,14.70
2018-12-14T09:51:30.568Z,16.62
2018-12-14T09:53:58.098Z,17.85
2018-12-14T09:56:25.574Z,19.82
2018-12-14T09:58:53.002Z,15.65
2018-12-14T10:01:20.439Z,19.73
2018-12-14T10:03:48.014Z,16.65
2018-12-14T10:06:15.944Z,18.98
2018-12-14T10:08:43.430Z,19.70
2018-12-14T10:11:10.894Z,18.75
2018-12-14T10:13:38.373Z,22.10
2018-12-14T10:16:06.155Z,16.10
2018-12-14T10:18:33.818Z,22.05
2018-12-14T10:21:01.258Z,18.55
2018-12-14T10:23:28.693Z,15.75
2018-12-14T10:25:56.169Z,16.12
2018-12-14T10:28:23.610Z,21.55
2018-12-14T10:30:51.073Z,18.15
2018-12-14T10:33:18.512Z,16.60
2018-12-14T10:35:45.985Z,18.45
2018-12-14T10:38:13.509Z,18.95
2018-12-14T10:40:40.934Z,21.40
2018-12-14T10:43:08.426Z,20.20
2018-12-14T10:45:36.127Z,19.30
2018-12-14T10:48:03.580Z,15.32
2018-12-14T10:50:38.687Z,12.90
2018-12-14T10:53:02.435Z,15.70
2018-12-14T10:55:29.910Z,14.58
2018-12-14T10:57:57.684Z,18.73
2018-12-14T11:00:30.810Z,15.40
2018-12-14T11:02:58.265Z,14.75
2018-12-14T11:05:25.738Z,11.43
2018-12-14T11:07:53.183Z,15.05
2018-12-14T11:10:20.636Z,13.08
2018-12-14T11:12:48.070Z,14.03
2018-12-14T11:15:15.498Z,16.42
2018-12-14T11:17:42.949Z,15.28
2018-12-14T11:20:10.402Z,14.87
2018-12-14T11:22:37.837Z,16.15
2018-12-14T11:25:05.918Z,14.35
2018-12-14T11:27:33.357Z,10.68
2018-12-14T11:30:00.805Z,15.03
2018-12-14T11:32:28.274Z,14.30
2018-12-14T11:34:55.698Z,13.32
2018-12-14T11:37:23.166Z,17.35
2018-12-14T11:39:50.590Z,13.13
2018-12-14T11:42:18.077Z,15.15
2018-12-14T11:44:45.507Z,13.75
2018-12-14T11:47:18.171Z,14.25
2018-12-14T11:49:42.361Z,14.33
2018-12-14T11:52:09.786Z,16.97
2018-12-14T11:54:37.245Z,15.78
2018-12-14T11:57:05.603Z,15.23
2018-12-14T11:59:33.039Z,15.43
2018-12-14T12:02:00.498Z,18.05
2018-12-14T12:04:27.934Z,21.50
2018-12-14T12:06:55.377Z,22.27
2018-12-14T12:09:22.818Z,27.65
2018-12-14T12:11:50.254Z,18.82
2018-12-14T12:14:17.686Z,15.88
2018-12-14T12:16:45.692Z,15.03
2018-12-14T12:19:13.132Z,13.45
2018-12-14T12:21:40.587Z,14.90
2018-12-14T12:24:08.049Z,11.08
2018-12-14T12:26:35.502Z,13.43
2018-12-14T12:29:02.958Z,13.85
2018-12-14T12:31:30.390Z,13.28
2018-12-14T12:33:57.847Z,15.65
2018-12-14T12:36:25.323Z,15.50
2018-12-14T12:38:52.757Z,13.78
2018-12-14T12:41:20.194Z,16.97
2018-12-14T12:43:47.646Z,15.00
2018-12-14T12:46:15.114Z,11.05
2018-12-14T12:48:42.794Z,12.55
2018-12-14T12:51:10.255Z,13.13
2018-12-14T12:53:37.715Z,13.08
2018-12-14T12:56:05.282Z,14.63
2018-12-14T12:58:32.726Z,15.00
2018-12-14T13:01:00.177Z,13.45
2018-12-14T13:03:27.615Z,12.53
2018-12-14T13:05:55.054Z,14.45
2018-12-14T13:08:22.499Z,14.75
2018-12-14T13:10:49.937Z,14.20
2018-12-14T13:13:17.369Z,12.35
2018-12-14T13:15:44.823Z,14.70
2018-12-14T13:18:12.279Z,10.90
2018-12-14T13:20:39.710Z,13.65
2018-12-14T13:23:07.193Z,11.40
2018-12-14T13:25:34.634Z,10.72
2018-12-14T13:28:02.305Z,12.58
2018-12-14T13:30:29.850Z,13.20
2018-12-14T13:32:57.601Z,13.03
2018-12-14T13:35:25.258Z,12.50
2018-12-14T13:37:52.686Z,15.43
2018-12-14T13:40:20.132Z,13.45
2018-12-14T13:42:47.681Z,10.72
2018-12-14T13:45:15.217Z,12.73
2018-12-14T13:47:42.685Z,13.48
2018-12-14T13:50:10.177Z,12.70
2018-12-14T13:52:37.702Z,11.22
2018-12-14T13:55:05.187Z,12.43
2018-12-14T13:57:32.703Z,10.48
2018-12-14T14:00:00.163Z,12.82
2018-12-14T14:02:27.642Z,14.50
2018-12-14T14:04:55.102Z,12.70
2018-12-14T14:07:22.554Z,11.93
2018-12-14T14:09:50.014Z,14.18
2018-12-14T14:12:17.523Z,16.62
2018-12-14T14:14:45.216Z,14.10
2018-12-14T14:17:12.642Z,15.32
2018-12-14T14:19:40.111Z,11.88
2018-12-14T14:22:07.537Z,13.80
2018-12-14T14:24:35.071Z,14.00
2018-12-14T14:27:02.528Z,15.70
2018-12-14T14:29:30.091Z,13.32
2018-12-14T14:31:57.571Z,15.38
2018-12-14T14:34:25.106Z,12.33
2018-12-14T14:36:52.538Z,13.28
2018-12-14T14:39:19.968Z,13.58
2018-12-14T14:41:47.517Z,13.72
2018-12-14T14:44:14.952Z,13.58
2018-12-14T14:46:42.387Z,14.35
2018-12-14T14:49:09.814Z,14.68
2018-12-14T14:51:37.254Z,18.37
2018-12-14T14:54:04.700Z,13.20
2018-12-14T14:56:32.270Z,9.85
2018-12-14T14:58:59.743Z,13.22
2018-12-14T15:01:27.258Z,11.03
2018-12-14T15:03:54.687Z,20.97
2018-12-14T15:06:22.154Z,13.53
2018-12-14T15:08:50.141Z,14.00
2018-12-14T15:11:17.618Z,13.35
2018-12-14T15:13:45.068Z,20.25
2018-12-14T15:16:12.560Z,14.07
2018-12-14T15:18:40.089Z,12.30
2018-12-14T15:21:07.550Z,11.97
2018-12-14T15:23:34.978Z,12.35
2018-12-14T15:26:02.417Z,13.18
2018-12-14T15:28:29.847Z,12.50
2018-12-14T15:30:57.302Z,13.25
2018-12-14T15:33:24.790Z,12.90
2018-12-14T15:35:52.254Z,18.30
2018-12-14T15:38:19.718Z,13.95
2018-12-14T15:40:47.158Z,13.15
2018-12-14T15:43:14.610Z,13.80
2018-12-14T15:45:42.045Z,13.38
2018-12-14T15:48:09.501Z,18.48
2018-12-14T15:50:37.018Z,12.40
2018-12-14T15:53:04.490Z,16.02
2018-12-14T15:55:31.958Z,16.10
2018-12-14T15:57:59.431Z,14.30
2018-12-14T16:00:26.986Z,14.80
2018-12-14T16:02:54.450Z,15.05
2018-12-14T16:05:21.931Z,14.28
2018-12-14T16:07:49.357Z,16.25
2018-12-14T16:10:16.795Z,11.28
2018-12-14T16:12:44.575Z,10.75
2018-12-14T16:15:12.106Z,11.75
2018-12-14T16:17:39.595Z,11.90
2018-12-14T16:20:08.934Z,15.13
2018-12-14T16:22:36.400Z,12.95
2018-12-14T16:25:05.298Z,14.38
2018-12-14T16:27:32.838Z,12.10
2018-12-14T16:30:00.307Z,20.30
2018-12-14T16:32:27.764Z,13.08
2018-12-14T16:34:55.219Z,15.10
2018-12-14T16:37:22.650Z,14.98
2018-12-14T16:39:50.082Z,14.00
2018-12-14T16:42:17.546Z,14.07
2018-12-14T16:44:44.975Z,14.50
2018-12-14T16:47:12.438Z,13.32
2018-12-14T16:49:39.950Z,12.98
2018-12-14T16:52:07.470Z,16.40
2018-12-14T16:54:34.897Z,13.15
2018-12-14T16:57:02.461Z,13.03
2018-12-14T16:59:30.411Z,13.93
2018-12-14T17:01:57.898Z,14.47
2018-12-14T17:04:25.405Z,12.55
2018-12-14T17:06:53.758Z,18.32
2018-12-14T17:09:21.186Z,16.48
2018-12-14T17:11:48.667Z,13.10
2018-12-14T17:14:16.123Z,15.10
2018-12-14T17:16:43.583Z,12.73
2018-12-14T17:19:11.037Z,12.95
2018-12-14T17:21:38.511Z,13.85
2018-12-14T17:24:05.961Z,13.95
2018-12-14T17:26:33.417Z,13.95
2018-12-14T17:29:00.847Z,15.98
2018-12-14T17:31:28.319Z,15.72
2018-12-14T17:33:55.871Z,13.80
2018-12-14T17:36:23.317Z,16.07
2018-12-14T17:38:50.783Z,12.68
2018-12-14T17:41:18.316Z,13.72
2018-12-14T17:43:45.873Z,14.28
2018-12-14T17:46:13.294Z,15.80
2018-12-14T17:48:40.738Z,16.27
2018-12-14T17:51:08.179Z,15.78
2018-12-14T17:53:35.614Z,15.05
2018-12-14T17:56:03.083Z,15.03
2018-12-14T17:58:30.519Z,17.02
2018-12-14T18:00:58.622Z,13.45
2018-12-14T18:03:26.198Z,14.28
2018-12-14T18:05:53.629Z,14.33
2018-12-14T18:08:21.087Z,14.07
2018-12-14T18:10:48.518Z,13.35
2018-12-14T18:13:15.957Z,15.08
2018-12-14T18:15:46.416Z,20.70
2018-12-14T18:18:12.894Z,21.73
2018-12-14T18:20:40.330Z,12.63
2018-12-14T18:23:07.772Z,13.00
2018-12-14T18:25:35.251Z,13.70
2018-12-14T18:28:02.720Z,14.05
2018-12-14T18:30:30.146Z,13.38
2018-12-14T18:32:57.666Z,14.15
2018-12-14T18:35:25.096Z,12.95
2018-12-14T18:37:52.642Z,14.75
2018-12-14T18:40:20.150Z,13.32
2018-12-14T18:42:47.591Z,17.52
2018-12-14T18:45:15.049Z,15.90
2018-12-14T18:47:42.530Z,13.93
2018-12-14T18:50:09.977Z,13.10
2018-12-14T18:52:37.470Z,14.25
2018-12-14T18:55:04.922Z,12.95
2018-12-14T18:57:32.366Z,18.70
2018-12-14T18:59:59.792Z,15.38
2018-12-14T19:02:27.254Z,16.90
2018-12-14T19:04:54.706Z,27.93
2018-12-14T19:07:22.138Z,14.85
2018-12-14T19:09:49.616Z,12.90
2018-12-14T19:12:17.281Z,15.08
2018-12-14T19:14:44.717Z,15.60
2018-12-14T19:17:12.151Z,13.72
2018-12-14T19:19:39.586Z,18.10
2018-12-14T19:22:07.018Z,14.53
2018-12-14T19:24:34.449Z,14.07
2018-12-14T19:27:01.890Z,16.35
2018-12-14T19:29:29.374Z,17.50
2018-12-14T19:31:56.818Z,17.77
2018-12-14T19:34:24.254Z,15.83
2018-12-14T19:36:51.688Z,17.95
2018-12-14T19:39:19.374Z,19.75
2018-12-14T19:41:47.153Z,13.60
2018-12-14T19:44:14.614Z,17.95
2018-12-14T19:46:42.051Z,15.15
2018-12-14T19:49:09.529Z,19.60
2018-12-14T19:51:37.009Z,18.55
2018-12-14T19:54:04.530Z,15.58
2018-12-14T19:56:32.016Z,15.23
2018-12-14T19:58:59.645Z,15.88
2018-12-14T20:01:27.078Z,21.57
2018-12-14T20:03:54.548Z,17.77
2018-12-14T20:06:21.994Z,17.00
2018-12-14T20:08:49.434Z,14.38
2018-12-14T20:11:16.887Z,12.95
2018-12-14T20:13:44.342Z,13.85
2018-12-14T20:16:12.849Z,16.00
2018-12-14T20:18:43.018Z,14.33
2018-12-14T20:21:10.448Z,13.60
2018-12-14T20:23:37.917Z,15.68
2018-12-14T20:26:05.425Z,21.10
2018-12-14T20:28:32.873Z,10.63
2018-12-14T20:31:00.366Z,15.10
2018-12-14T20:33:27.821Z,15.05
2018-12-14T20:35:55.266Z,16.25
2018-12-14T20:38:22.693Z,16.77
2018-12-14T20:40:50.162Z,17.48
2018-12-14T20:43:17.687Z,14.33
2018-12-14T20:45:45.661Z,13.75
2018-12-14T20:48:13.095Z,13.32
2018-12-14T20:50:40.609Z,11.60
2018-12-14T20:53:08.102Z,14.65
2018-12-14T20:55:35.557Z,12.53
2018-12-14T20:58:02.985Z,11.68
2018-12-14T21:00:30.433Z,11.80
2018-12-14T21:02:57.942Z,9.18
2018-12-14T21:05:25.407Z,10.98
2018-12-14T21:07:52.853Z,11.30
2018-12-14T21:10:20.321Z,11.80
2018-12-14T21:12:47.953Z,12.15
2018-12-14T21:15:15.438Z,11.25
2018-12-14T21:17:42.913Z,10.90
2018-12-14T21:20:10.418Z,8.65
2018-12-14T21:22:37.850Z,12.10
2018-12-14T21:25:05.526Z,14.78
2018-12-14T21:27:32.986Z,12.53
2018-12-14T21:30:00.450Z,13.72
2018-12-14T21:32:27.879Z,12.60
2018-12-14T21:34:55.330Z,16.27
2018-12-14T21:37:22.797Z,13.72
2018-12-14T21:39:50.270Z,12.18
2018-12-14T21:42:17.755Z,13.38
2018-12-14T21:44:45.259Z,12.30
2018-12-14T21:47:12.718Z,12.85
2018-12-14T21:49:40.214Z,13.05
2018-12-14T21:52:07.690Z,13.18
2018-12-14T21:54:35.126Z,16.37
2018-12-14T21:57:02.570Z,12.85
2018-12-14T21:59:29.990Z,14.63
2018-12-14T22:01:57.462Z,18.17
2018-12-14T22:04:24.899Z,14.07
2018-12-14T22:06:52.360Z,13.60
2018-12-14T22:09:19.790Z,14.47
2018-12-14T22:11:47.253Z,14.15
2018-12-14T22:14:14.828Z,13.90
2018-12-14T22:16:42.237Z,12.18
2018-12-14T22:19:09.685Z,13.15
2018-12-14T22:21:37.151Z,11.53
2018-12-14T22:24:04.621Z,11.45
2018-12-14T22:26:32.084Z,14.23
2018-12-14T22:28:59.617Z,12.53
2018-12-14T22:31:27.074Z,12.82
2018-12-14T22:33:54.553Z,10.58
2018-12-14T22:36:21.978Z,13.50
2018-12-14T22:38:49.441Z,11.63
2018-12-14T22:41:16.870Z,11.95
2018-12-14T22:43:44.334Z,12.95
2018-12-14T22:46:11.764Z,15.15
2018-12-14T22:48:39.218Z,12.73
2018-12-14T22:51:06.646Z,11.88
2018-12-14T22:53:34.107Z,12.93
2018-12-14T22:56:01.538Z,13.15
2018-12-14T22:58:29.018Z,13.28
2018-12-14T23:00:56.502Z,13.48
2018-12-14T23:03:23.962Z,14.38
2018-12-14T23:05:51.429Z,12.85
2018-12-14T23:08:18.939Z,15.25
2018-12-14T23:10:46.379Z,12.85
2018-12-14T23:13:13.816Z,13.05
2018-12-14T23:15:41.265Z,14.53
2018-12-14T23:18:08.704Z,12.60
2018-12-14T23:20:36.158Z,10.70
2018-12-14T23:23:03.629Z,15.53
2018-12-14T23:25:31.122Z,11.33
2018-12-14T23:27:58.986Z,14.10
2018-12-14T23:30:26.442Z,16.62
2018-12-14T23:32:53.866Z,13.00
2018-12-14T23:35:21.342Z,14.75
2018-12-14T23:37:48.774Z,13.55
2018-12-14T23:40:16.233Z,13.83
2018-12-14T23:42:43.691Z,19.30
2018-12-14T23:45:11.201Z,14.87
2018-12-14T23:47:38.634Z,11.03
2018-12-14T23:50:06.144Z,12.47
2018-12-14T23:52:33.679Z,12.20
2018-12-14T23:55:01.157Z,11.50
2018-12-14T23:57:28.657Z,14.18
2018-12-14T23:59:56.097Z,12.53
